Time;durP1;ratioP1;P1;durP2;ratioP2;P2;SDS_P1;SDS_P2;PMS_P1;PMS_P2;Temp;Humidity;BMP_temperature;BMP_pressure;BME280_temperature;BME280_humidity;BME280_pressure;Samples;Min_cycle;Max_cycle;Signal;HPM_P1;HPM_P2
2022/08/26 00:02:09;;;;;;;11.93;5.45;;;;;;;12.62;100.00;99481.78;4844551;29;20061;-85
2022/08/26 00:04:34;;;;;;;15.13;5.60;;;;;;;12.76;100.00;99481.81;4848696;29;20060;-84
2022/08/26 00:07:00;;;;;;;12.48;5.97;;;;;;;12.74;100.00;99478.56;4850232;29;20468;-84
2022/08/26 00:09:26;;;;;;;20.73;6.72;;;;;;;12.84;100.00;99479.81;4847889;29;20038;-85
2022/08/26 00:11:53;;;;;;;19.15;6.68;;;;;;;12.83;100.00;99477.41;4848318;29;20030;-86
2022/08/26 00:14:19;;;;;;;16.48;5.85;;;;;;;12.79;100.00;99466.44;4851515;29;20065;-86
2022/08/26 00:16:45;;;;;;;18.15;6.43;;;;;;;12.84;100.00;99481.66;4852399;29;20090;-85
2022/08/26 00:19:11;;;;;;;15.23;6.10;;;;;;;12.81;100.00;99479.44;4863719;29;20045;-85
2022/08/26 00:21:37;;;;;;;22.50;6.53;;;;;;;12.66;100.00;99477.75;4848741;29;20395;-86
2022/08/26 00:24:03;;;;;;;17.63;7.03;;;;;;;12.76;100.00;99476.56;4848384;29;20037;-85
2022/08/26 00:26:29;;;;;;;16.90;6.57;;;;;;;12.62;100.00;99483.59;4851611;29;20037;-85
2022/08/26 00:28:55;;;;;;;19.15;7.05;;;;;;;12.71;100.00;99480.59;4855115;29;20433;-85
2022/08/26 00:31:23;;;;;;;19.17;6.63;;;;;;;12.66;100.00;99480.38;4850568;29;20482;-85
2022/08/26 00:33:49;;;;;;;18.85;6.80;;;;;;;12.54;100.00;99479.31;4848657;29;20515;-85
2022/08/26 00:36:15;;;;;;;18.30;6.35;;;;;;;12.50;100.00;99468.38;4863324;29;20069;-85
2022/08/26 00:38:41;;;;;;;16.45;6.60;;;;;;;12.50;100.00;99480.72;4851648;29;20445;-85
2022/08/26 00:41:07;;;;;;;18.13;6.57;;;;;;;12.42;100.00;99472.00;4846176;29;20034;-86
2022/08/26 00:43:35;;;;;;;14.95;6.20;;;;;;;12.43;100.00;99478.06;4834448;29;20064;-84
2022/08/26 00:46:28;;;;;;;15.55;5.72;;;;;;;12.64;100.00;99495.56;4848271;29;20030;-86
2022/08/26 00:49:04;;;;;;;11.68;5.88;;;;;;;12.42;100.00;99482.53;4848993;29;20033;-86
2022/08/26 00:51:30;;;;;;;17.42;5.57;;;;;;;12.45;100.00;99486.56;4848779;29;20041;-86
2022/08/26 00:54:08;;;;;;;14.73;5.95;;;;;;;12.50;100.00;99493.88;4849466;29;20033;-86
2022/08/26 00:56:46;;;;;;;20.42;5.45;;;;;;;12.22;100.00;99460.56;4845782;29;20097;-87
2022/08/26 00:59:13;;;;;;;10.30;5.03;;;;;;;12.34;100.00;99485.31;4846103;29;20519;-85
2022/08/26 01:01:43;;;;;;;16.35;6.00;;;;;;;12.36;100.00;99475.38;4847410;29;20458;-85
2022/08/26 01:04:10;;;;;;;12.30;4.80;;;;;;;12.28;100.00;99472.94;4847324;29;20068;-85
2022/08/26 01:06:36;;;;;;;10.18;5.35;;;;;;;12.23;100.00;99478.78;4831649;29;20029;-88
2022/08/26 01:09:02;;;;;;;23.05;5.22;;;;;;;12.27;100.00;99476.56;4848350;29;20120;-87
2022/08/26 01:11:28;;;;;;;14.85;4.93;;;;;;;12.20;100.00;99473.09;4850036;29;20090;-87
2022/08/26 01:13:57;;;;;;;9.77;5.40;;;;;;;12.12;100.00;99460.91;4846615;29;20026;-87
2022/08/26 01:16:24;;;;;;;11.32;4.30;;;;;;;12.27;100.00;99472.09;4851412;29;20037;-88
2022/08/26 01:18:53;;;;;;;10.82;4.13;;;;;;;12.31;100.00;99479.63;4849923;29;20113;-88
2022/08/26 01:21:28;;;;;;;9.45;3.72;;;;;;;12.40;100.00;99483.72;4849099;29;20394;-86
2022/08/26 01:23:56;;;;;;;11.43;3.53;;;;;;;12.19;100.00;99482.81;4850818;29;20030;-88
2022/08/26 01:26:29;;;;;;;8.18;3.78;;;;;;;12.20;100.00;99479.16;4852007;29;20067;-87
2022/08/26 01:28:57;;;;;;;16.73;3.50;;;;;;;12.18;100.00;99485.63;4851301;29;20121;-87
2022/08/26 01:31:28;;;;;;;8.52;3.10;;;;;;;12.22;100.00;99473.72;4849246;29;20037;-87
2022/08/26 01:34:14;;;;;;;6.43;3.00;;;;;;;12.27;100.00;99485.25;4853794;29;20133;-87
2022/08/26 01:36:40;;;;;;;6.43;3.08;;;;;;;12.18;100.00;99486.44;4855032;29;20056;-86
2022/08/26 01:39:07;;;;;;;9.20;2.92;;;;;;;12.21;100.00;99485.25;4838374;29;20036;-86
2022/08/26 01:41:35;;;;;;;5.55;2.35;;;;;;;12.19;100.00;99487.28;4856936;29;20038;-88
2022/08/26 01:44:03;;;;;;;8.15;2.88;;;;;;;12.29;100.00;99482.44;4834049;29;20042;-88
2022/08/26 01:46:30;;;;;;;7.35;2.70;;;;;;;12.19;100.00;99492.53;4851155;29;20037;-87
2022/08/26 01:49:00;;;;;;;7.47;2.97;;;;;;;12.18;100.00;99491.72;4867314;29;20124;-87
2022/08/26 01:51:26;;;;;;;12.55;3.17;;;;;;;12.25;100.00;99481.22;4854348;29;20034;-85
2022/08/26 01:53:54;;;;;;;12.43;2.92;;;;;;;12.19;100.00;99492.53;4866104;29;20069;-88
2022/08/26 01:56:22;;;;;;;4.70;2.55;;;;;;;12.18;100.00;99493.50;4847753;29;20129;-88
2022/08/26 01:58:52;;;;;;;7.88;3.13;;;;;;;12.15;100.00;99486.84;4852339;29;20041;-86
2022/08/26 02:01:20;;;;;;;5.72;2.72;;;;;;;12.18;100.00;99483.81;4869905;29;20483;-86
2022/08/26 02:03:54;;;;;;;9.38;2.85;;;;;;;12.23;100.00;99485.88;4850223;29;20038;-88
2022/08/26 02:06:21;;;;;;;8.65;2.88;;;;;;;12.30;100.00;99491.97;4836560;29;20030;-86
2022/08/26 02:08:50;;;;;;;6.82;2.22;;;;;;;12.30;100.00;99497.22;4854048;29;20030;-85
2022/08/26 02:11:16;;;;;;;5.88;2.88;;;;;;;12.32;100.00;99474.16;4847962;29;20120;-87
2022/08/26 02:13:45;;;;;;;8.57;3.20;;;;;;;12.21;100.00;99487.88;4849479;29;20205;-86
2022/08/26 02:16:14;;;;;;;10.70;3.08;;;;;;;12.27;100.00;99500.25;4868736;29;20105;-86
2022/08/26 02:18:42;;;;;;;12.13;2.97;;;;;;;12.39;100.00;99487.38;4851984;29;20081;-86
2022/08/26 02:21:11;;;;;;;15.35;2.97;;;;;;;12.37;100.00;99490.19;4848834;29;20463;-84
2022/08/26 02:23:37;;;;;;;11.60;3.05;;;;;;;12.53;100.00;99499.59;4858281;29;20041;-86
2022/08/26 02:26:16;;;;;;;7.82;3.60;;;;;;;12.65;100.00;99502.47;4859787;29;20037;-85
2022/08/26 02:29:05;;;;;;;7.90;3.10;;;;;;;12.67;100.00;99503.09;4853406;29;20030;-85
2022/08/26 02:31:31;;;;;;;5.13;2.40;;;;;;;12.54;100.00;99489.84;4851244;29;20045;-86
2022/08/26 02:34:12;;;;;;;5.03;2.45;;;;;;;12.69;100.00;99502.91;4865899;29;20506;-87
2022/08/26 02:36:38;;;;;;;8.32;2.70;;;;;;;12.56;100.00;99482.56;4851447;29;20046;-87
2022/08/26 02:39:04;;;;;;;7.72;2.35;;;;;;;12.66;100.00;99498.81;4850898;29;20068;-86
2022/08/26 02:41:30;;;;;;;10.35;2.55;;;;;;;12.68;100.00;99499.44;4852359;29;20086;-87
2022/08/26 02:43:56;;;;;;;8.30;2.50;;;;;;;12.59;100.00;99491.91;4848827;29;20034;-88
2022/08/26 02:46:21;;;;;;;6.50;2.70;;;;;;;12.59;100.00;99487.47;4851484;29;20048;-87
2022/08/26 02:48:47;;;;;;;8.05;2.92;;;;;;;12.74;100.00;99492.56;4851195;29;20044;-88
2022/08/26 02:51:13;;;;;;;9.65;2.67;;;;;;;12.76;100.00;99492.38;4850035;29;20468;-87
2022/08/26 02:53:38;;;;;;;8.40;2.47;;;;;;;12.67;100.00;99476.75;4864226;29;20034;-87
2022/08/26 02:56:07;;;;;;;7.10;2.33;;;;;;;12.76;100.00;99489.72;4864439;29;20045;-87
2022/08/26 02:58:33;;;;;;;9.07;2.17;;;;;;;12.63;100.00;99472.88;4849213;29;20026;-88
2022/08/26 03:00:59;;;;;;;7.43;2.63;;;;;;;12.62;100.00;99471.25;4850832;29;20058;-87
2022/08/26 03:03:25;;;;;;;6.75;2.00;;;;;;;12.73;100.00;99479.59;4851565;29;20483;-87
2022/08/26 03:05:52;;;;;;;6.07;2.00;;;;;;;12.82;100.00;99486.31;4860464;29;20369;-86
2022/08/26 03:08:18;;;;;;;7.55;2.45;;;;;;;12.67;100.00;99471.47;4846276;29;20094;-87
2022/08/26 03:10:46;;;;;;;9.13;2.00;;;;;;;12.80;100.00;99477.81;4850388;29;20124;-87
2022/08/26 03:13:13;;;;;;;11.90;2.85;;;;;;;12.85;100.00;99475.38;4864428;29;20514;-87
2022/08/26 03:15:39;;;;;;;4.07;1.90;;;;;;;13.00;100.00;99478.66;4849177;29;20033;-87
2022/08/26 03:18:05;;;;;;;10.45;2.20;;;;;;;12.96;100.00;99474.78;4850381;29;20054;-86
2022/08/26 03:20:32;;;;;;;10.50;2.08;;;;;;;12.95;100.00;99475.81;4864573;29;20045;-86
2022/08/26 03:22:58;;;;;;;3.00;1.60;;;;;;;13.10;100.00;99473.00;4855322;29;20051;-85
2022/08/26 03:25:24;;;;;;;6.35;1.85;;;;;;;13.17;100.00;99474.84;4849317;29;20037;-86
2022/08/26 03:27:51;;;;;;;5.38;2.00;;;;;;;13.12;100.00;99472.78;4848632;29;20048;-86
2022/08/26 03:33:04;;;;;;;6.10;1.77;;;;;;;13.21;100.00;99468.97;4851088;29;20147;-87
2022/08/26 03:35:31;;;;;;;3.85;1.63;;;;;;;13.21;100.00;99473.41;4848322;29;20053;-85
2022/08/26 03:37:58;;;;;;;4.30;1.60;;;;;;;13.24;100.00;99462.47;4850265;29;20446;-87
2022/08/26 03:40:24;;;;;;;9.65;2.08;;;;;;;13.25;100.00;99475.47;4850480;29;20094;-85
2022/08/26 03:42:50;;;;;;;8.15;2.45;;;;;;;13.17;100.00;99459.03;4849553;29;20037;-85
2022/08/26 03:45:17;;;;;;;5.18;2.13;;;;;;;13.25;100.00;99470.19;4846806;29;20186;-85
2022/08/26 03:47:44;;;;;;;13.45;2.15;;;;;;;13.22;100.00;99448.69;4852031;29;20033;-86
2022/08/26 03:50:12;;;;;;;4.13;1.65;;;;;;;13.29;100.00;99466.13;4851220;29;20479;-85
2022/08/26 03:52:38;;;;;;;6.97;1.63;;;;;;;13.13;100.00;99456.78;4846832;29;20516;-85
2022/08/26 03:55:05;;;;;;;6.18;1.80;;;;;;;13.14;100.00;99454.94;4863438;29;20117;-86
2022/08/26 03:57:31;;;;;;;4.35;2.22;;;;;;;13.12;100.00;99454.34;4849241;29;20055;-86
2022/08/26 03:59:57;;;;;;;6.60;1.83;;;;;;;13.21;100.00;99468.97;4849208;29;20034;-86
2022/08/26 04:02:24;;;;;;;3.15;1.70;;;;;;;13.17;100.00;99467.75;4851843;29;20033;-85
2022/08/26 04:04:51;;;;;;;5.07;1.85;;;;;;;13.23;100.00;99476.66;4832475;29;20030;-86
2022/08/26 04:07:17;;;;;;;5.53;1.73;;;;;;;13.14;100.00;99468.97;4862853;29;20579;-86
2022/08/26 04:09:43;;;;;;;3.33;1.75;;;;;;;13.10;100.00;99466.91;4850414;29;20038;-85
2022/08/26 04:12:09;;;;;;;7.90;1.75;;;;;;;13.04;100.00;99462.47;4846589;29;20037;-85
2022/08/26 04:14:36;;;;;;;7.78;1.90;;;;;;;12.95;100.00;99454.72;4848584;29;20042;-85
2022/08/26 04:17:03;;;;;;;7.88;1.88;;;;;;;12.92;100.00;99459.59;4852468;29;20033;-86
2022/08/26 04:19:30;;;;;;;8.38;2.08;;;;;;;12.97;100.00;99458.00;4853900;29;20042;-85
2022/08/26 04:21:56;;;;;;;6.80;2.30;;;;;;;12.89;100.00;99468.69;4874223;29;20089;-87
2022/08/26 04:24:24;;;;;;;5.53;2.25;;;;;;;12.91;100.00;99465.88;4855393;29;20034;-87
2022/08/26 04:26:50;;;;;;;5.45;1.50;;;;;;;12.74;100.00;99439.06;4850877;29;20399;-85
2022/08/26 04:29:18;;;;;;;8.07;1.98;;;;;;;12.86;100.00;99462.00;4849175;29;20042;-83
2022/08/26 04:31:46;;;;;;;4.75;2.22;;;;;;;12.80;100.00;99454.09;4863628;29;20038;-84
2022/08/26 04:34:12;;;;;;;5.50;2.30;;;;;;;12.88;100.00;99453.91;4845914;29;20042;-84
2022/08/26 04:36:39;;;;;;;5.78;2.20;;;;;;;13.00;100.00;99457.59;4869265;29;20566;-84
2022/08/26 04:39:05;;;;;;;5.80;1.73;;;;;;;13.06;100.00;99461.22;4863018;29;20050;-86
2022/08/26 04:41:32;;;;;;;3.35;2.30;;;;;;;12.99;100.00;99460.41;4848545;29;20125;-85
2022/08/26 04:43:57;;;;;;;6.22;2.15;;;;;;;12.88;100.00;99456.53;4849980;29;20511;-86
2022/08/26 04:46:24;;;;;;;10.85;3.05;;;;;;;13.02;100.00;99467.91;4849550;29;20068;-85
2022/08/26 04:48:51;;;;;;;6.72;1.92;;;;;;;12.97;100.00;99460.63;4851223;29;20368;-85
2022/08/26 04:51:26;;;;;;;6.97;2.42;;;;;;;13.05;100.00;99466.72;4846356;29;20484;-85
2022/08/26 04:53:59;;;;;;;7.97;2.28;;;;;;;12.84;100.00;99460.59;4850066;29;20372;-85
2022/08/26 04:56:54;;;;;;;8.05;2.10;;;;;;;13.01;100.00;99458.38;4850616;29;20029;-84
2022/08/26 04:59:23;;;;;;;6.43;1.67;;;;;;;12.82;100.00;99441.53;4847668;29;20178;-85
2022/08/26 05:02:02;;;;;;;9.73;2.33;;;;;;;12.91;100.00;99458.78;4846623;29;20057;-85
2022/08/26 05:04:28;;;;;;;6.38;2.00;;;;;;;12.83;100.00;99437.88;4856997;29;20037;-85
2022/08/26 05:06:54;;;;;;;7.25;2.60;;;;;;;12.83;100.00;99437.88;4870541;29;20029;-84
2022/08/26 05:09:20;;;;;;;5.85;2.00;;;;;;;13.00;100.00;99457.59;4851295;29;20045;-85
2022/08/26 05:11:47;;;;;;;4.88;2.15;;;;;;;12.95;100.00;99452.09;4852442;29;20401;-85
2022/08/26 05:14:13;;;;;;;6.60;2.08;;;;;;;13.13;100.00;99448.06;4854422;29;20041;-84
2022/08/26 05:16:39;;;;;;;5.82;1.92;;;;;;;13.28;100.00;99451.31;4851090;29;20395;-84
2022/08/26 05:19:05;;;;;;;6.55;2.20;;;;;;;13.29;100.00;99439.75;4850155;29;20060;-85
2022/08/26 05:21:31;;;;;;;8.52;2.17;;;;;;;13.31;100.00;99451.94;4852027;29;20120;-84
2022/08/26 05:23:57;;;;;;;4.80;1.88;;;;;;;13.35;100.00;99451.34;4846267;29;20516;-84
2022/08/26 05:26:25;;;;;;;6.60;2.10;;;;;;;13.33;100.00;99455.19;4852277;29;20030;-84
2022/08/26 05:28:53;;;;;;;7.78;2.40;;;;;;;13.34;100.00;99440.97;4850363;29;20029;-84
2022/08/26 05:31:22;;;;;;;6.75;2.47;;;;;;;13.38;100.00;99445.66;4850254;29;20121;-82
2022/08/26 05:33:47;;;;;;;6.60;1.90;;;;;;;13.51;100.00;99436.16;4853064;29;20081;-84
2022/08/26 05:36:17;;;;;;;7.07;2.40;;;;;;;13.51;100.00;99447.50;4855622;29;20042;-84
2022/08/26 05:38:43;;;;;;;8.65;2.22;;;;;;;13.57;100.00;99448.53;4851053;29;20033;-84
2022/08/26 05:41:26;;;;;;;7.90;2.08;;;;;;;13.60;100.00;99437.56;4853823;29;20090;-84
2022/08/26 05:43:52;;;;;;;5.78;2.50;;;;;;;13.74;100.00;99446.25;4846011;29;20036;-84
2022/08/26 05:46:18;;;;;;;5.38;1.98;;;;;;;13.93;100.00;99452.53;4863826;29;20039;-84
2022/08/26 05:48:44;;;;;;;8.43;2.50;;;;;;;13.95;100.00;99455.78;4849335;29;20033;-86
2022/08/26 05:51:11;;;;;;;8.02;2.50;;;;;;;13.88;100.00;99451.53;4867565;29;20068;-85
2022/08/26 05:53:39;;;;;;;5.20;2.30;;;;;;;13.94;100.00;99450.69;4853537;29;20030;-86
2022/08/26 05:56:07;;;;;;;8.63;2.70;;;;;;;13.99;100.00;99454.34;4853047;29;20064;-83
2022/08/26 05:58:34;;;;;;;12.43;2.63;;;;;;;13.96;100.00;99470.59;4848816;29;20087;-84
2022/08/26 06:01:01;;;;;;;7.70;2.30;;;;;;;14.10;100.00;99466.09;4836791;29;20562;-85
2022/08/26 06:03:28;;;;;;;6.43;2.13;;;;;;;14.36;100.00;99467.03;4851083;29;20033;-85
2022/08/26 06:05:54;;;;;;;8.15;2.30;;;;;;;14.32;100.00;99465.03;4853799;29;20090;-86
2022/08/26 06:08:20;;;;;;;6.70;2.42;;;;;;;14.47;100.00;99456.84;4849973;29;20034;-87
2022/08/26 06:10:54;;;;;;;7.78;2.15;;;;;;;14.49;100.00;99458.25;4849490;29;20037;-84
2022/08/26 06:13:23;;;;;;;8.00;2.17;;;;;;;14.51;100.00;99476.50;4850837;29;20088;-85
2022/08/26 06:15:50;;;;;;;12.13;2.65;;;;;;;14.68;100.00;99472.38;4844412;29;20046;-85
2022/08/26 06:18:21;;;;;;;8.25;2.30;;;;;;;14.73;100.00;99478.88;4850386;29;20050;-85
2022/08/26 06:20:47;;;;;;;5.07;2.05;;;;;;;14.88;100.00;99470.69;4853000;29;20062;-85
2022/08/26 06:26:03;;;;;;;5.38;2.08;;;;;;;14.92;100.00;99470.03;4855493;29;20097;-86
2022/08/26 06:28:28;;;;;;;8.45;3.00;;;;;;;15.42;100.00;99479.09;4853450;29;20477;-85
2022/08/26 06:30:56;;;;;;;9.20;2.40;;;;;;;15.43;100.00;99483.34;4863308;29;20037;-86
2022/08/26 06:33:30;;;;;;;8.77;2.40;;;;;;;15.65;100.00;99485.59;4854054;29;20124;-86
2022/08/26 06:35:56;;;;;;;7.82;2.30;;;;;;;15.65;100.00;99481.13;4852635;29;20086;-86
2022/08/26 06:38:22;;;;;;;9.10;2.45;;;;;;;15.60;100.00;99451.06;4850252;29;20037;-85
2022/08/26 06:40:50;;;;;;;7.15;2.33;;;;;;;15.42;100.00;99481.72;4852773;29;20048;-85
2022/08/26 06:43:18;;;;;;;4.65;2.20;;;;;;;15.44;100.00;99450.56;4853793;29;20086;-85
2022/08/26 06:45:45;;;;;;;8.55;2.78;;;;;;;15.63;100.00;99482.38;4829045;29;20030;-85
2022/08/26 06:48:17;;;;;;;5.25;2.00;;;;;;;15.69;100.00;99478.84;4845574;29;20048;-85
2022/08/26 06:50:43;;;;;;;8.38;2.50;;;;;;;15.44;100.00;99470.94;4862907;29;20518;-86
2022/08/26 06:53:12;;;;;;;8.32;2.40;;;;;;;15.02;100.00;99466.94;4852291;29;20073;-85
2022/08/26 06:55:42;;;;;;;7.30;2.50;;;;;;;14.90;100.00;99416.59;4851974;29;20768;-87
2022/08/26 06:58:08;;;;;;;6.38;2.50;;;;;;;15.51;100.00;99484.91;4849362;29;20066;-86
2022/08/26 07:00:35;;;;;;;4.88;2.22;;;;;;;15.54;100.00;99485.31;4847897;29;20029;-87
2022/08/26 07:03:01;;;;;;;11.65;2.60;;;;;;;15.62;100.00;99486.03;4849155;29;20386;-86
2022/08/26 07:05:26;;;;;;;7.15;3.15;;;;;;;15.94;100.00;99478.84;4850199;29;21578;-87
2022/08/26 07:07:52;;;;;;;6.40;2.45;;;;;;;16.02;100.00;99477.75;4853575;29;20034;-88
2022/08/26 07:10:18;;;;;;;6.65;2.60;;;;;;;15.90;100.00;99495.38;4849665;29;20037;-87
2022/08/26 07:12:44;;;;;;;9.18;3.30;;;;;;;15.71;100.00;99492.66;4850237;29;20121;-88
2022/08/26 07:15:10;;;;;;;10.82;2.65;;;;;;;15.55;100.00;99492.22;4845737;29;20045;-86
2022/08/26 07:17:36;;;;;;;6.53;2.55;;;;;;;15.63;100.00;99498.25;4847936;29;20407;-86
2022/08/26 07:20:05;;;;;;;8.50;3.17;;;;;;;15.78;100.00;99501.38;4852012;29;20057;-86
2022/08/26 07:22:31;;;;;;;11.27;2.67;;;;;;;16.03;100.00;99492.63;4863621;29;20041;-86
2022/08/26 07:24:57;;;;;;;8.45;2.60;;;;;;;16.08;100.00;99490.13;4853817;29;20037;-88
2022/08/26 07:27:22;;;;;;;10.35;2.75;;;;;;;16.32;100.00;99477.06;4833679;29;20035;-87
2022/08/26 07:29:48;;;;;;;6.93;2.00;;;;;;;16.65;100.00;99493.56;4848634;29;20539;-87
2022/08/26 07:32:15;;;;;;;11.18;2.60;;;;;;;16.94;100.00;99497.28;4855073;29;20033;-86
2022/08/26 07:34:42;;;;;;;6.40;2.53;;;;;;;17.24;100.00;99495.66;4849550;29;20071;-85
2022/08/26 07:37:08;;;;;;;9.15;2.30;;;;;;;17.33;100.00;99483.66;4850742;29;20078;-88
2022/08/26 07:39:33;;;;;;;7.03;2.42;;;;;;;17.28;100.00;99481.69;4865332;29;20479;-87
2022/08/26 07:42:01;;;;;;;8.13;2.33;;;;;;;17.21;100.00;99502.22;4830928;29;20037;-87
2022/08/26 07:44:27;;;;;;;12.82;2.65;;;;;;;17.41;100.00;99503.75;4849461;29;20036;-87
2022/08/26 07:46:53;;;;;;;4.50;2.30;;;;;;;17.51;100.00;99493.41;4846870;29;20053;-87
2022/08/26 07:49:23;;;;;;;8.02;3.00;;;;;;;17.58;100.00;99495.13;4848483;29;20066;-88
2022/08/26 07:51:49;;;;;;;7.68;2.60;;;;;;;17.68;100.00;99512.09;4843814;29;21011;-87
2022/08/26 07:54:15;;;;;;;10.73;2.60;;;;;;;17.51;100.00;99488.09;4845294;29;20456;-88
2022/08/26 07:56:41;;;;;;;6.18;2.42;;;;;;;17.65;100.00;99506.44;4847457;29;20480;-86
2022/08/26 07:59:07;;;;;;;3.55;1.95;;;;;;;17.65;100.00;99501.94;4847634;29;20042;-89
2022/08/26 08:01:33;;;;;;;6.80;2.38;;;;;;;17.58;100.00;99506.53;4866580;29;20042;-85
2022/08/26 08:03:59;;;;;;;6.35;2.33;;;;;;;17.72;100.00;99506.31;4831978;29;20385;-86
2022/08/26 08:06:25;;;;;;;6.65;2.20;;;;;;;17.67;100.00;99502.53;4852471;29;20033;-86
2022/08/26 08:08:51;;;;;;;4.80;2.05;;;;;;;17.69;100.00;99508.41;4834633;29;20034;-87
2022/08/26 08:11:19;;;;;;;8.15;2.40;;;;;;;17.85;100.00;99506.09;4852738;29;20033;-87
2022/08/26 08:13:46;;;;;;;8.52;2.67;;;;;;;17.92;100.00;99506.00;4849567;29;20065;-87
2022/08/26 08:16:14;;;;;;;8.10;2.50;;;;;;;17.60;100.00;99503.66;4849805;29;20054;-87
2022/08/26 08:18:39;;;;;;;4.30;2.25;;;;;;;17.84;100.00;99507.94;4850093;29;20077;-85
2022/08/26 08:21:08;;;;;;;8.57;2.60;;;;;;;18.06;100.00;99506.59;4846965;29;20063;-84
2022/08/26 08:23:34;;;;;;;3.83;2.03;;;;;;;18.24;100.00;99502.97;4860471;29;20030;-85
2022/08/26 08:26:04;;;;;;;5.63;2.08;;;;;;;17.96;100.00;99513.25;4847734;29;20048;-85
2022/08/26 08:28:29;;;;;;;7.88;2.58;;;;;;;18.19;100.00;99501.03;4848432;29;20037;-86
2022/08/26 08:30:55;;;;;;;8.20;2.38;;;;;;;18.51;100.00;99515.78;4844507;29;20086;-87
2022/08/26 08:33:22;;;;;;;6.30;2.13;;;;;;;18.51;100.00;99497.16;4848747;29;20048;-86
2022/08/26 08:35:48;;;;;;;5.88;2.30;;;;;;;18.59;100.00;99501.31;4843579;29;20025;-84
2022/08/26 08:38:14;;;;;;;12.05;2.50;;;;;;;18.54;100.00;99491.38;4859311;29;20503;-85
2022/08/26 08:40:42;;;;;;;5.22;2.30;;;;;;;18.53;100.00;99489.75;4854391;29;20090;-84
2022/08/26 08:43:14;;;;;;;5.70;2.53;;;;;;;18.75;100.00;99503.19;4843083;29;20030;-84
2022/08/26 08:45:42;;;;;;;6.20;2.35;;;;;;;18.77;100.00;99497.66;4855566;29;20038;-84
2022/08/26 08:48:13;;;;;;;9.93;2.92;;;;;;;18.90;100.00;99493.88;4862108;29;20036;-83
2022/08/26 08:50:44;;;;;;;7.65;2.60;;;;;;;18.82;100.00;99487.91;4859255;29;20488;-83
2022/08/26 08:53:17;;;;;;;7.15;2.55;;;;;;;18.91;100.00;99503.47;4868184;29;20046;-84
2022/08/26 08:56:08;;;;;;;5.18;2.00;;;;;;;18.78;100.00;99499.25;4862014;29;20040;-83
2022/08/26 08:58:40;;;;;;;7.50;2.58;;;;;;;18.62;100.00;99493.63;4865490;29;20061;-84
2022/08/26 09:01:17;;;;;;;4.82;2.30;;;;;;;18.47;100.00;99496.81;4851584;29;20060;-84
2022/08/26 09:04:21;;;;;;;7.45;2.78;;;;;;;18.31;100.00;99501.03;4850025;29;20120;-83
2022/08/26 09:06:48;;;;;;;4.60;2.63;;;;;;;18.20;100.00;99507.16;4862985;29;20056;-83
2022/08/26 09:09:22;;;;;;;6.32;2.65;;;;;;;18.11;100.00;99496.06;4842912;29;20041;-83
2022/08/26 09:11:49;;;;;;;6.97;2.95;;;;;;;17.95;100.00;99481.63;4857692;29;20109;-83
2022/08/26 09:14:14;;;;;;;5.25;2.42;;;;;;;18.02;100.00;99495.63;4858131;29;20061;-83
2022/08/26 09:16:50;;;;;;;5.00;2.20;;;;;;;18.02;100.00;99489.50;4863868;29;20057;-84
2022/08/26 09:19:27;;;;;;;5.13;2.25;;;;;;;17.88;100.00;99465.81;4841580;29;20062;-83
2022/08/26 09:21:59;;;;;;;8.00;2.60;;;;;;;17.91;100.00;99480.47;4865004;29;20029;-83
2022/08/26 09:24:25;;;;;;;5.88;2.50;;;;;;;17.97;100.00;99482.19;4865384;29;20034;-83
2022/08/26 09:26:51;;;;;;;5.47;2.30;;;;;;;18.05;100.00;99484.53;4860209;29;20034;-83
2022/08/26 09:29:17;;;;;;;3.40;2.08;;;;;;;18.09;100.00;99485.69;4864980;29;20044;-86
2022/08/26 09:31:44;;;;;;;7.05;2.75;;;;;;;18.16;100.00;99490.06;4860076;29;20042;-85
2022/08/26 09:34:23;;;;;;;8.05;2.53;;;;;;;18.21;100.00;99482.19;4855938;29;20097;-86
2022/08/26 09:36:58;;;;;;;6.90;2.53;;;;;;;18.25;100.00;99483.34;4840464;29;20046;-84
2022/08/26 09:39:26;;;;;;;5.78;2.28;;;;;;;18.27;100.00;99483.91;4859899;29;20481;-84
2022/08/26 09:42:11;;;;;;;6.10;2.33;;;;;;;18.33;100.00;99485.66;4864707;29;20109;-84
2022/08/26 09:44:58;;;;;;;7.53;2.72;;;;;;;18.31;100.00;99466.47;4858216;29;20033;-84
2022/08/26 09:47:29;;;;;;;4.88;2.33;;;;;;;18.37;100.00;99476.16;4860437;29;20072;-83
2022/08/26 09:50:23;;;;;;;9.65;3.05;;;;;;;18.46;100.00;99475.78;4860278;29;20400;-84
2022/08/26 09:53:13;;;;;;;7.35;2.97;;;;;;;18.59;100.00;99478.16;4852021;29;20057;-83
2022/08/26 09:55:44;;;;;;;7.60;2.45;;;;;;;18.55;100.00;99477.81;4871412;29;20044;-84
2022/08/26 09:58:34;;;;;;;4.97;2.50;;;;;;;18.62;100.00;99472.38;4859795;29;20522;-84
2022/08/26 10:01:03;;;;;;;5.20;2.60;;;;;;;18.64;100.00;99475.59;4865156;29;20411;-84
2022/08/26 10:03:35;;;;;;;12.65;2.78;;;;;;;18.73;100.00;99469.91;4860983;29;20034;-84
2022/08/26 10:06:18;;;;;;;6.22;2.78;;;;;;;18.79;100.00;99468.97;4858984;29;20041;-83
2022/08/26 10:08:47;;;;;;;6.57;2.75;;;;;;;18.78;100.00;99464.69;4863384;29;20102;-83
2022/08/26 10:11:21;;;;;;;5.22;2.58;;;;;;;18.93;100.00;99477.44;4882120;29;20041;-84
2022/08/26 10:13:57;;;;;;;7.57;2.50;;;;;;;19.10;100.00;99472.19;4868363;29;20041;-85
2022/08/26 10:16:29;;;;;;;3.55;2.22;;;;;;;19.17;100.00;99472.84;4871729;29;20044;-84
2022/08/26 10:18:57;;;;;;;9.07;2.58;;;;;;;19.07;100.00;99468.16;4866749;29;20081;-84
2022/08/26 10:21:36;;;;;;;10.02;2.88;;;;;;;19.29;100.00;99467.44;4868113;29;20042;-85
2022/08/26 10:24:03;;;;;;;4.13;2.30;;;;;;;19.26;100.00;99466.09;4849780;29;20033;-85
2022/08/26 10:26:43;;;;;;;8.80;2.65;;;;;;;19.53;100.00;99470.75;4869604;29;20037;-85
2022/08/26 10:29:18;;;;;;;6.80;2.50;;;;;;;19.73;100.00;99466.78;4864771;29;20061;-84
2022/08/26 10:31:53;;;;;;;6.60;2.83;;;;;;;19.89;100.00;99475.00;4878535;29;20102;-84
2022/08/26 10:34:20;;;;;;;4.85;2.35;;;;;;;19.93;100.00;99458.28;4867920;29;20049;-84
2022/08/26 10:37:15;;;;;;;4.15;2.63;;;;;;;20.22;100.00;99462.63;4852185;29;20480;-85
2022/08/26 10:39:48;;;;;;;5.55;2.50;;;;;;;20.43;100.00;99465.53;4859592;29;20108;-84
2022/08/26 10:42:23;;;;;;;;;;;;;;;20.62;100.00;99458.81;4860084;29;20042;-84
2022/08/26 10:44:52;;;;;;;9.07;3.05;;;;;;;20.79;100.00;99461.41;4854835;29;19912;-84
2022/08/26 10:47:26;;;;;;;7.32;2.92;;;;;;;20.68;100.00;99449.00;4860402;29;20044;-84
2022/08/26 10:49:52;;;;;;;7.22;3.00;;;;;;;20.42;100.00;99443.41;4861601;29;20038;-84
2022/08/26 10:52:33;;;;;;;9.40;3.90;;;;;;;20.51;100.00;99454.44;4863003;29;20069;-84
2022/08/26 10:55:16;;;;;;;5.78;3.13;;;;;;;20.43;100.00;99452.19;4857259;29;20054;-84
2022/08/26 10:57:57;;;;;;;9.88;3.22;;;;;;;20.29;100.00;99449.94;4862986;29;20029;-85
2022/08/26 11:03:38;;;;;;;10.98;4.38;;;;;;;20.04;100.00;99447.75;4853218;29;20093;-84
2022/08/26 11:06:20;;;;;;;7.47;3.38;;;;;;;20.15;100.00;99440.69;4846192;29;20535;-83
2022/08/26 11:08:55;;;;;;;5.68;3.60;;;;;;;20.16;100.00;99448.47;4855081;29;20399;-84
2022/08/26 11:11:44;;;;;;;7.90;3.55;;;;;;;20.29;100.00;99455.28;4875695;29;20038;-84
2022/08/26 11:14:18;;;;;;;9.10;4.18;;;;;;;20.42;100.00;99459.41;4854026;29;20041;-84
2022/08/26 11:16:53;;;;;;;3.92;3.35;;;;;;;20.37;100.00;99449.50;4853083;29;20033;-84
2022/08/26 11:19:40;;;;;;;4.65;3.35;;;;;;;20.41;100.00;99455.13;4854458;29;20061;-84
2022/08/26 11:22:28;;;;;;;6.57;3.45;;;;;;;20.39;100.00;99436.72;4863270;29;20128;-83
2022/08/26 11:24:59;;;;;;;7.97;3.38;;;;;;;20.50;100.00;99447.50;4856021;29;20081;-86
2022/08/26 11:27:34;;;;;;;7.38;3.47;;;;;;;20.60;100.00;99444.94;4846151;29;20033;-82
2022/08/26 11:30:14;;;;;;;4.60;3.33;;;;;;;20.64;99.35;99440.72;4856619;29;20034;-84
2022/08/26 11:32:39;;;;;;;7.38;3.45;;;;;;;20.77;100.00;99438.69;4849023;29;20048;-87
2022/08/26 11:35:20;;;;;;;3.63;3.15;;;;;;;20.91;99.66;99439.94;4831552;29;20034;-89
2022/08/26 11:38:25;;;;;;;4.90;3.42;;;;;;;20.76;100.00;99426.41;4846987;29;20046;-88
2022/08/26 11:41:19;;;;;;;8.57;3.65;;;;;;;20.95;99.92;99430.34;4846814;29;20049;-87
2022/08/26 11:43:48;;;;;;;6.18;3.33;;;;;;;21.03;99.66;99442.44;4848128;29;20049;-88
2022/08/26 11:46:23;;;;;;;6.60;3.40;;;;;;;21.04;98.76;99440.59;4847473;29;20038;-86